Terminal Aerodrome Forecast
Issued by NWS

Home | Current Version | Previous Version | Text Only | Print | Product List | Glossary On
Versions: 1 2 3 4 5 6 7 8 9 10 11 12 13
000
FTUS45 KGGW 030500
TAFSDY
TAF
KSDY 030522Z 0306/0406 VRB03KT P6SM SCT150
     FM031900 09009KT P6SM -SHRA BKN100
     FM040000 34009KT P6SM -TSRA BKN050CB
      AMD LTD TO CLD VIS AND WIND=

USA.gov is the U.S. government's official web portal to all federal, state and local government web resources and services.